createdAt,value
2022-11-27T00:00:09.796Z,13.45
2022-11-27T00:05:11.548Z,10.10
2022-11-27T00:10:13.640Z,9.50
2022-11-27T00:15:17.306Z,14.48
2022-11-27T00:20:19.651Z,10.43
2022-11-27T00:25:21.793Z,11.88
2022-11-27T00:30:23.884Z,9.00
2022-11-27T00:35:25.609Z,8.07
2022-11-27T00:40:27.302Z,7.20
2022-11-27T00:45:29.415Z,7.65
2022-11-27T00:50:32.301Z,8.60
2022-11-27T00:55:34.046Z,6.78
2022-11-27T01:00:35.743Z,7.35
2022-11-27T01:05:37.907Z,7.68
2022-11-27T01:10:40.002Z,8.70
2022-11-27T01:15:42.147Z,8.23
2022-11-27T01:20:44.384Z,7.30
2022-11-27T01:25:46.276Z,7.03
2022-11-27T01:30:48.428Z,7.20
2022-11-27T01:35:57.559Z,7.32
2022-11-27T01:41:18.804Z,9.32
2022-11-27T01:46:20.894Z,12.30
2022-11-27T01:51:23.528Z,12.73
2022-11-27T01:56:27.110Z,11.48
2022-11-27T02:01:29.352Z,12.02
2022-11-27T02:06:31.728Z,11.32
2022-11-27T02:11:52.101Z,10.88
2022-11-27T02:17:24.140Z,11.55
2022-11-27T02:22:28.837Z,9.47
2022-11-27T02:27:45.388Z,10.13
2022-11-27T02:33:00.384Z,11.05
2022-11-27T02:38:10.183Z,10.68
2022-11-27T02:43:14.551Z,11.73
2022-11-27T02:48:20.318Z,11.07
2022-11-27T02:53:32.077Z,12.02
2022-11-27T02:58:36.102Z,10.88
2022-11-27T03:03:46.524Z,11.07
2022-11-27T03:09:00.564Z,9.80
2022-11-27T03:14:08.458Z,8.07
2022-11-27T03:19:22.878Z,9.60
2022-11-27T03:24:25.387Z,8.98
2022-11-27T03:29:37.051Z,7.85
2022-11-27T03:34:40.159Z,8.40
2022-11-27T03:39:42.963Z,7.32
2022-11-27T03:44:45.005Z,7.18
2022-11-27T03:49:55.334Z,7.90
2022-11-27T03:55:21.995Z,8.40
2022-11-27T04:00:24.225Z,7.47
2022-11-27T04:05:25.925Z,8.15
2022-11-27T04:10:27.991Z,8.52
2022-11-27T04:15:29.690Z,10.65
2022-11-27T04:20:31.797Z,9.15
2022-11-27T04:25:33.925Z,9.63
2022-11-27T04:30:36.040Z,10.13
2022-11-27T04:35:38.175Z,11.32
2022-11-27T04:40:40.364Z,9.30
2022-11-27T04:45:44.299Z,10.52
2022-11-27T04:50:46.408Z,9.18
2022-11-27T04:55:48.513Z,8.45
2022-11-27T05:00:50.265Z,8.52
2022-11-27T05:05:58.593Z,8.60
2022-11-27T05:11:00.749Z,7.63
2022-11-27T05:16:03.238Z,7.82
2022-11-27T05:21:07.523Z,9.25
2022-11-27T05:26:09.686Z,9.10
2022-11-27T05:31:11.845Z,9.75
2022-11-27T05:36:14.072Z,12.60
2022-11-27T05:41:16.220Z,10.63
2022-11-27T05:46:20.671Z,8.98
2022-11-27T05:51:22.941Z,7.10
2022-11-27T05:56:24.998Z,4.75
2022-11-27T06:01:27.076Z,4.85
2022-11-27T06:06:29.274Z,5.82
2022-11-27T06:11:31.339Z,6.95
2022-11-27T06:16:33.468Z,5.95
2022-11-27T06:21:35.649Z,6.57
2022-11-27T06:26:37.452Z,6.43
2022-11-27T06:31:40.152Z,5.82
2022-11-27T06:36:42.790Z,6.18
2022-11-27T06:41:44.920Z,8.27
2022-11-27T06:46:46.544Z,7.32
2022-11-27T06:51:49.176Z,6.68
2022-11-27T06:56:51.340Z,8.02
2022-11-27T07:01:53.117Z,8.35
2022-11-27T07:06:55.535Z,7.32
2022-11-27T07:11:57.790Z,4.38
2022-11-27T07:16:59.515Z,5.10
2022-11-27T07:22:01.299Z,3.92
2022-11-27T07:27:03.459Z,7.05
2022-11-27T07:32:05.520Z,6.80
2022-11-27T07:37:07.206Z,5.45
2022-11-27T07:42:37.031Z,5.78
2022-11-27T07:47:31.072Z,6.88
2022-11-27T07:52:40.834Z,13.60
2022-11-27T07:57:43.443Z,16.97
2022-11-27T08:02:45.107Z,30.40
2022-11-27T08:07:46.849Z,29.52
2022-11-27T08:12:48.721Z,22.80
2022-11-27T08:17:50.498Z,23.85
2022-11-27T08:22:52.661Z,22.98
2022-11-27T08:27:54.437Z,19.92
2022-11-27T08:32:56.160Z,18.40
2022-11-27T08:37:58.057Z,13.30
2022-11-27T08:42:59.739Z,12.80
2022-11-27T08:48:01.413Z,13.68
2022-11-27T08:53:03.291Z,12.57
2022-11-27T08:58:05.525Z,14.93
2022-11-27T09:03:07.257Z,14.50
2022-11-27T09:08:08.959Z,16.23
2022-11-27T09:13:10.681Z,16.55
2022-11-27T09:18:12.374Z,13.07
2022-11-27T09:23:14.595Z,12.90
2022-11-27T09:28:16.448Z,11.57
2022-11-27T09:33:18.627Z,9.70
2022-11-27T09:38:21.032Z,11.27
2022-11-27T09:43:31.980Z,9.77
2022-11-27T09:48:42.268Z,8.82
2022-11-27T09:53:50.406Z,6.93
2022-11-27T09:58:58.771Z,7.88
2022-11-27T10:04:03.852Z,7.13
2022-11-27T10:09:40.923Z,6.90
2022-11-27T10:15:11.586Z,6.72
2022-11-27T10:20:19.656Z,7.63
2022-11-27T10:25:39.018Z,4.93
2022-11-27T10:30:56.090Z,7.28
2022-11-27T10:35:59.906Z,7.80
2022-11-27T10:41:49.657Z,4.90
2022-11-27T10:46:56.668Z,3.28
2022-11-27T10:51:59.355Z,2.17
2022-11-27T10:57:18.097Z,2.00
2022-11-27T11:02:46.675Z,1.80
2022-11-27T11:08:19.250Z,1.80
2022-11-27T11:13:29.083Z,2.15
2022-11-27T11:18:41.653Z,1.90
2022-11-27T11:23:46.466Z,1.85
2022-11-27T11:28:53.055Z,1.90
2022-11-27T11:34:02.344Z,1.25
2022-11-27T11:39:04.407Z,1.60
2022-11-27T11:44:06.338Z,1.85
2022-11-27T11:49:18.390Z,1.80
2022-11-27T11:54:38.874Z,1.38
2022-11-27T11:59:54.174Z,1.83
2022-11-27T12:05:07.949Z,1.52
2022-11-27T12:10:36.113Z,1.20
2022-11-27T12:16:11.905Z,1.00
2022-11-27T12:21:15.433Z,2.10
2022-11-27T12:26:47.980Z,1.45
2022-11-27T12:32:07.826Z,1.48
2022-11-27T12:37:57.758Z,1.10
2022-11-27T12:43:26.691Z,1.38
2022-11-27T12:48:36.524Z,2.40
2022-11-27T12:53:48.730Z,1.35
2022-11-27T12:59:04.688Z,1.60
2022-11-27T13:04:28.162Z,1.10
2022-11-27T13:09:54.757Z,1.00
2022-11-27T13:15:19.958Z,1.55
2022-11-27T13:20:28.956Z,1.17
2022-11-27T13:25:34.291Z,1.10
2022-11-27T13:30:38.210Z,0.80
2022-11-27T13:35:42.577Z,0.70
2022-11-27T13:40:48.090Z,0.60
2022-11-27T13:45:50.903Z,0.68
2022-11-27T13:50:54.244Z,0.70
2022-11-27T13:55:57.663Z,0.80
2022-11-27T14:01:12.910Z,2.30
2022-11-27T14:06:22.429Z,0.70
2022-11-27T14:11:45.778Z,0.57
2022-11-27T14:17:02.637Z,2.17
2022-11-27T14:22:15.390Z,1.10
2022-11-27T14:27:24.319Z,1.08
2022-11-27T14:32:35.730Z,0.88
2022-11-27T14:42:39.435Z,0.70
2022-11-27T14:47:46.415Z,0.77
2022-11-27T14:52:54.861Z,1.13
2022-11-27T14:57:57.133Z,0.77
2022-11-27T15:03:10.096Z,0.80
2022-11-27T15:08:15.681Z,0.80
2022-11-27T15:13:27.305Z,0.85
2022-11-27T15:23:34.416Z,1.75
2022-11-27T15:28:53.833Z,0.90
2022-11-27T15:34:15.722Z,1.20
2022-11-27T15:39:24.459Z,1.10
2022-11-27T15:44:28.025Z,1.02
2022-11-27T15:49:30.540Z,1.02
2022-11-27T15:54:32.300Z,1.20
2022-11-27T15:59:33.941Z,1.20
2022-11-27T16:04:35.666Z,1.25
2022-11-27T16:09:39.553Z,1.17
2022-11-27T16:14:41.524Z,1.30
2022-11-27T16:19:43.443Z,1.45
2022-11-27T16:24:45.215Z,1.83
2022-11-27T16:29:46.869Z,1.88
2022-11-27T16:34:50.606Z,1.80
2022-11-27T16:39:52.314Z,1.83
2022-11-27T16:44:54.108Z,1.58
2022-11-27T16:49:55.746Z,1.63
2022-11-27T16:54:57.591Z,2.05
2022-11-27T16:59:59.317Z,1.75
2022-11-27T17:05:00.985Z,2.17
2022-11-27T17:10:04.110Z,2.78
2022-11-27T17:15:06.389Z,2.25
2022-11-27T17:20:08.510Z,2.78
2022-11-27T17:25:11.112Z,3.88
2022-11-27T17:30:13.154Z,2.97
2022-11-27T17:35:15.569Z,3.40
2022-11-27T17:40:17.712Z,3.20
2022-11-27T17:45:19.849Z,3.38
2022-11-27T17:50:21.536Z,2.92
2022-11-27T17:55:23.238Z,3.58
2022-11-27T18:00:24.921Z,3.10
2022-11-27T18:05:26.655Z,3.47
2022-11-27T18:10:28.401Z,3.55
2022-11-27T18:15:30.467Z,3.72
2022-11-27T18:20:32.132Z,4.57
2022-11-27T18:25:33.781Z,3.78
2022-11-27T18:30:35.566Z,4.63
2022-11-27T18:35:41.681Z,4.65
2022-11-27T18:40:45.817Z,4.18
2022-11-27T18:45:47.515Z,4.90
2022-11-27T18:50:49.662Z,5.80
2022-11-27T18:55:52.888Z,5.03
2022-11-27T19:00:57.529Z,4.20
2022-11-27T19:06:04.407Z,4.80
2022-11-27T19:11:08.858Z,5.40
2022-11-27T19:16:19.159Z,5.35
2022-11-27T19:21:23.780Z,4.90
2022-11-27T19:26:28.132Z,4.90
2022-11-27T19:31:30.789Z,4.90
2022-11-27T19:36:33.471Z,5.03
2022-11-27T19:41:35.559Z,4.88
2022-11-27T19:46:37.988Z,5.38
2022-11-27T19:51:40.130Z,5.25
2022-11-27T19:56:42.559Z,5.38
2022-11-27T20:01:44.498Z,6.30
2022-11-27T20:06:49.484Z,5.15
2022-11-27T20:11:51.606Z,5.07
2022-11-27T20:16:53.503Z,5.05
2022-11-27T20:21:55.244Z,5.40
2022-11-27T20:26:56.900Z,4.82
2022-11-27T20:31:59.070Z,5.40
2022-11-27T20:37:01.329Z,5.45
2022-11-27T20:42:03.325Z,6.30
2022-11-27T20:47:05.052Z,4.90
2022-11-27T20:52:07.093Z,4.97
2022-11-27T20:57:13.917Z,4.95
2022-11-27T21:02:16.053Z,5.20
2022-11-27T21:07:19.430Z,6.97
2022-11-27T21:12:21.612Z,5.13
2022-11-27T21:17:23.334Z,4.65
2022-11-27T21:22:25.031Z,5.32
2022-11-27T21:27:28.702Z,4.70
2022-11-27T21:32:30.426Z,5.28
2022-11-27T21:37:32.531Z,5.35
2022-11-27T21:42:34.669Z,4.40
2022-11-27T21:47:36.506Z,4.93
2022-11-27T21:52:38.194Z,5.88
2022-11-27T21:57:40.203Z,5.85
2022-11-27T22:02:45.160Z,5.28
2022-11-27T22:07:47.053Z,5.05
2022-11-27T22:12:48.766Z,5.00
2022-11-27T22:17:50.897Z,5.93
2022-11-27T22:22:53.007Z,4.95
2022-11-27T22:27:55.125Z,6.68
2022-11-27T22:32:57.255Z,5.38
2022-11-27T22:37:58.935Z,5.97
2022-11-27T22:43:00.668Z,5.20
2022-11-27T22:48:02.466Z,5.22
2022-11-27T22:53:04.605Z,5.63
2022-11-27T22:58:06.236Z,5.43
2022-11-27T23:03:08.175Z,5.47
2022-11-27T23:08:10.350Z,6.15
2022-11-27T23:13:12.494Z,5.70
2022-11-27T23:18:14.711Z,5.65
2022-11-27T23:23:16.332Z,5.40
2022-11-27T23:28:18.053Z,5.15
2022-11-27T23:33:19.726Z,5.82
2022-11-27T23:38:21.441Z,5.25
2022-11-27T23:43:23.698Z,5.32
2022-11-27T23:48:25.902Z,6.07
2022-11-27T23:53:28.463Z,5.60
2022-11-27T23:58:30.308Z,5.40
